Charlotte, NC (28207)

3:00 PM EDT on July 26, 2016 (GMT -0400)
Eastover | | Change Station

Elev 0 ft 35.19 °N, 80.82 °W | Updated 3 seconds ago

Partly Cloudy
Partly Cloudy
98.1 °F
Feels Like 109 °F
N
1.6
Wind Variable Wind from South
Gusts 2.0 mph

Today
High -- | Low -- °F
--% Chance of Precip.
Yesterday
High -- | Low -- °F
Precip. -- in
Pressure 29.96 in
Visibility 10.0 miles
Clouds Few 5000 ft
Heat Index 109 °F
Dew Point 73 °F
Humidity 45%
Rainfall 0.00 in
Snow Depth Not available.
6:28 AM 8:31 PM
Waning Gibbous, 52% visible
METAR KCLT 261852Z 32004KT 10SM FEW050 36/19 A2999 RMK AO2 SLP145 T03610189
Pressure 29.96 in
Visibility 10.0 miles
Clouds Few 5000 ft
Heat Index 109 °F
Dew Point 73 °F
Humidity 45%
Rainfall 0.00 in
Snow Depth Not available.
6:28 AM 8:31 PM
Waning Gibbous, 52% visible
METAR KCLT 261852Z 32004KT 10SM FEW050 36/19 A2999 RMK AO2 SLP145 T03610189

10-Day Weather Forecast

Almanac

Astronomy

Jul. 26, 2016 Rise Set
Actual Time
Civil Twilight
Nautical Twilight
Astronomical Twilight
Moon
Length of Visible Light
Length of Day
Tomorrow will be .
, % of the Moon is Illuminated

Today's Extremes

State Highs State Lows

Community

WunderPhotos

Upload Photos

1,927,653 photos uploaded!

WunderBlog® & News

Nearby

Air Quality

  Air Quality AQ Index Pollutant
Not available.

Snow Depth

Station Depth Elevation

Earthquake Activity

City Distance Mag. Time & Date
Minimum magnitude displayed is 2.5.

Coastal Water Temperatures

Place Temperature

Stations

Nearby Weather Stations

Station Location Temp. Windchill Dew Point Humidity Wind Precip. Elev Updated Type
                   

Watches & Warnings

There are currently no watches in effect.